Time;durP1;ratioP1;P1;durP2;ratioP2;P2;SDS_P1;SDS_P2;PMS_P1;PMS_P2;Temp;Humidity;BMP_temperature;BMP_pressure;BME280_temperature;BME280_humidity;BME280_pressure;Samples;Min_cycle;Max_cycle;Signal;HPM_P1;HPM_P2
2021/10/28 00:14:32;;;;;;;40.05;29.10;;;5.10;99.90;;;;;;5060088;28;20044;-49
2021/10/28 00:17:00;;;;;;;40.97;30.17;;;5.20;99.90;;;;;;5031317;28;20040;-49
2021/10/28 00:19:28;;;;;;;42.30;29.25;;;5.30;99.90;;;;;;5064711;28;20147;-49
2021/10/28 00:21:55;;;;;;;37.70;29.15;;;5.20;99.90;;;;;;5068594;28;20510;-49
2021/10/28 00:24:20;;;;;;;39.33;27.90;;;5.10;99.90;;;;;;5068287;28;20048;-49
2021/10/28 00:26:47;;;;;;;41.75;28.38;;;5.30;99.90;;;;;;5066809;28;20395;-49
2021/10/28 00:29:16;;;;;;;40.40;29.42;;;5.30;99.90;;;;;;5069761;28;20472;-49
2021/10/28 00:31:44;;;;;;;40.83;28.60;;;5.30;99.90;;;;;;5071858;28;20043;-49
2021/10/28 00:34:12;;;;;;;41.05;30.30;;;5.30;99.90;;;;;;5062349;28;20017;-49
2021/10/28 00:36:38;;;;;;;41.05;27.85;;;5.30;99.90;;;;;;5060672;28;20030;-50
2021/10/28 00:39:07;;;;;;;40.28;28.88;;;5.20;99.90;;;;;;5068871;28;20956;-49
2021/10/28 00:41:34;;;;;;;37.75;28.15;;;5.30;99.90;;;;;;5068970;28;20033;-49
2021/10/28 00:44:01;;;;;;;41.13;28.00;;;5.20;99.90;;;;;;5015611;28;20406;-49
2021/10/28 00:46:31;;;;;;;40.78;28.30;;;5.20;99.90;;;;;;5065732;28;20472;-49
2021/10/28 00:48:57;;;;;;;39.95;29.58;;;5.30;99.90;;;;;;5061645;28;20447;-49
2021/10/28 00:51:26;;;;;;;40.97;29.08;;;5.40;99.90;;;;;;5064799;28;20032;-49
2021/10/28 00:53:52;;;;;;;39.90;29.42;;;5.40;99.90;;;;;;5057404;28;20126;-49
2021/10/28 00:56:21;;;;;;;42.22;28.20;;;5.40;99.90;;;;;;5067883;28;20806;-49
2021/10/28 00:58:47;;;;;;;38.28;28.45;;;5.30;99.90;;;;;;5064041;28;20566;-49
2021/10/28 01:01:13;;;;;;;38.33;28.60;;;5.40;99.90;;;;;;5061433;28;20484;-49
2021/10/28 01:03:39;;;;;;;37.58;27.45;;;5.60;99.90;;;;;;5072109;28;20044;-49
2021/10/28 01:06:07;;;;;;;38.83;28.75;;;5.80;99.90;;;;;;5064440;28;20394;-49
2021/10/28 01:08:38;;;;;;;35.67;25.98;;;6.10;99.90;;;;;;5016278;28;20060;-49
2021/10/28 01:11:06;;;;;;;34.33;27.63;;;6.40;99.90;;;;;;5067857;28;20471;-49
2021/10/28 01:13:32;;;;;;;33.72;25.90;;;6.60;99.90;;;;;;5067612;28;20028;-49
2021/10/28 01:15:58;;;;;;;37.75;26.73;;;6.70;99.90;;;;;;5059801;28;20106;-49
2021/10/28 01:18:24;;;;;;;36.33;27.17;;;6.80;99.90;;;;;;5070925;28;20460;-49
2021/10/28 01:20:52;;;;;;;34.88;26.02;;;6.90;99.90;;;;;;5030835;28;20396;-49
2021/10/28 01:23:23;;;;;;;35.22;27.08;;;7.00;99.90;;;;;;5069042;28;20086;-49
2021/10/28 01:25:54;;;;;;;36.15;27.38;;;7.00;99.90;;;;;;5061843;28;20116;-49
2021/10/28 01:28:22;;;;;;;35.17;26.55;;;7.10;99.90;;;;;;5057038;28;20057;-49
2021/10/28 01:30:50;;;;;;;34.78;26.38;;;7.10;99.90;;;;;;5066264;28;20036;-50
2021/10/28 01:33:17;;;;;;;33.28;25.80;;;7.10;99.90;;;;;;5063310;28;20334;-49
2021/10/28 01:35:44;;;;;;;39.10;28.70;;;7.10;99.90;;;;;;5066749;28;20039;-49
2021/10/28 01:38:11;;;;;;;35.53;27.23;;;7.00;99.90;;;;;;5061366;28;20017;-49
2021/10/28 01:40:38;;;;;;;33.80;26.90;;;6.90;99.90;;;;;;5069916;28;20037;-49
2021/10/28 01:43:04;;;;;;;34.67;25.52;;;6.60;99.90;;;;;;5064376;28;20373;-49
2021/10/28 01:45:31;;;;;;;34.80;25.33;;;6.40;99.90;;;;;;5063016;28;20024;-49
2021/10/28 01:47:58;;;;;;;31.00;25.08;;;6.50;99.90;;;;;;5063488;28;20041;-49
2021/10/28 01:50:24;;;;;;;33.00;22.63;;;6.70;99.90;;;;;;5065074;28;20048;-49
2021/10/28 01:52:50;;;;;;;33.53;25.92;;;6.90;99.90;;;;;;5065291;28;20106;-49
2021/10/28 01:55:16;;;;;;;32.90;25.45;;;6.90;99.90;;;;;;5045607;28;20465;-49
2021/10/28 01:57:43;;;;;;;34.10;26.95;;;7.00;99.90;;;;;;5061586;28;20479;-49
2021/10/28 02:00:15;;;;;;;33.97;25.80;;;7.00;99.90;;;;;;5063587;28;20033;-49
2021/10/28 02:02:42;;;;;;;;;;;7.00;99.90;;;;;;5061187;28;20036;-49
2021/10/28 02:05:10;;;;;;;36.42;26.33;;;6.80;99.90;;;;;;5068845;28;19904;-49
2021/10/28 02:07:36;;;;;;;36.55;27.15;;;6.70;99.90;;;;;;5068176;28;20048;-49
2021/10/28 02:10:07;;;;;;;33.95;26.45;;;6.50;99.90;;;;;;5048652;28;20041;-49
2021/10/28 02:12:34;;;;;;;36.38;27.60;;;6.30;99.90;;;;;;5072548;28;20119;-49
2021/10/28 02:15:00;;;;;;;34.20;26.63;;;6.20;99.90;;;;;;5061761;28;20025;-49
2021/10/28 02:17:26;;;;;;;34.45;27.17;;;6.40;99.90;;;;;;5064664;28;20109;-49
2021/10/28 02:19:52;;;;;;;32.47;25.38;;;6.40;99.90;;;;;;5062379;28;20484;-50
2021/10/28 02:22:18;;;;;;;33.97;27.02;;;6.50;99.90;;;;;;5069848;28;20090;-49
2021/10/28 02:24:43;;;;;;;31.90;24.90;;;6.50;99.90;;;;;;5065614;28;20036;-49
2021/10/28 02:27:09;;;;;;;32.63;24.80;;;6.70;99.90;;;;;;5063414;28;20037;-49
2021/10/28 02:29:36;;;;;;;32.92;24.17;;;6.80;99.90;;;;;;5061284;28;20101;-49
2021/10/28 02:32:02;;;;;;;34.97;27.10;;;6.60;99.90;;;;;;5064870;28;20025;-49
2021/10/28 02:34:28;;;;;;;33.83;26.05;;;6.30;99.90;;;;;;5048310;28;20036;-48
2021/10/28 02:36:53;;;;;;;37.10;26.45;;;6.50;99.90;;;;;;5058484;28;20021;-49
2021/10/28 02:39:19;;;;;;;32.03;24.88;;;6.40;99.90;;;;;;5061236;28;20025;-49
2021/10/28 02:41:45;;;;;;;32.60;25.88;;;6.40;99.90;;;;;;5071557;28;20051;-49
2021/10/28 02:44:13;;;;;;;36.60;26.02;;;6.30;99.90;;;;;;5061995;28;20071;-49
2021/10/28 02:46:40;;;;;;;35.65;25.13;;;6.40;99.90;;;;;;5062182;28;20072;-49
2021/10/28 02:49:11;;;;;;;34.13;24.67;;;6.60;99.90;;;;;;5065599;28;20060;-49
2021/10/28 02:51:38;;;;;;;32.50;24.90;;;6.70;99.90;;;;;;5064572;28;20037;-49
2021/10/28 02:54:04;;;;;;;33.88;25.35;;;6.70;99.90;;;;;;5067590;28;20418;-49
2021/10/28 02:56:30;;;;;;;33.92;24.38;;;6.70;99.90;;;;;;5067413;28;20029;-49
2021/10/28 02:58:56;;;;;;;30.67;23.13;;;6.70;99.90;;;;;;5063284;28;20380;-48
2021/10/28 03:01:22;;;;;;;29.42;23.52;;;6.60;99.90;;;;;;5066142;28;20060;-49
2021/10/28 03:03:48;;;;;;;30.80;24.40;;;6.50;99.90;;;;;;5070699;28;20040;-49
2021/10/28 03:06:14;;;;;;;30.58;24.75;;;6.50;99.90;;;;;;5065599;28;20076;-49
2021/10/28 03:08:39;;;;;;;31.75;24.45;;;6.40;99.90;;;;;;5056503;28;20040;-49
2021/10/28 03:11:08;;;;;;;35.72;25.63;;;6.10;99.90;;;;;;5065598;28;20034;-49
2021/10/28 03:13:34;;;;;;;31.23;24.33;;;5.80;99.90;;;;;;5048222;28;20056;-49
2021/10/28 03:16:10;;;;;;;30.73;24.95;;;5.60;99.90;;;;;;5060953;28;20052;-49
2021/10/28 03:27:06;;;;;;;28.70;22.83;;;5.90;99.90;;;;;;4986350;28;20517;-49
2021/10/28 03:29:31;;;;;;;30.15;24.08;;;6.00;99.90;;;;;;4961281;28;20046;-48
2021/10/28 03:31:57;;;;;;;28.50;22.85;;;5.90;99.90;;;;;;4990410;28;20038;-49
2021/10/28 03:34:23;;;;;;;37.00;26.95;;;6.00;99.90;;;;;;4990668;28;20042;-49
2021/10/28 03:36:58;;;;;;;32.22;24.92;;;5.60;99.90;;;;;;4990882;28;20026;-49
2021/10/28 04:17:28;;;;;;;35.70;25.02;;;6.30;99.90;;;;;;5031369;28;20443;-48
2021/10/28 04:30:22;;;;;;;40.08;27.25;;;6.20;99.90;;;;;;5032861;28;20120;-49
2021/10/28 04:32:49;;;;;;;36.38;28.02;;;6.30;99.90;;;;;;5050167;28;20049;-48
2021/10/28 04:35:15;;;;;;;34.25;25.92;;;6.30;99.90;;;;;;5033882;28;20045;-48
2021/10/28 04:37:44;;;;;;;39.63;28.15;;;6.30;99.90;;;;;;5066889;28;20021;-48
2021/10/28 04:40:11;;;;;;;38.72;26.77;;;6.30;99.90;;;;;;5061951;28;20032;-48
2021/10/28 04:42:37;;;;;;;45.28;28.45;;;6.30;99.90;;;;;;5061715;28;20060;-49
2021/10/28 04:45:04;;;;;;;44.25;30.30;;;6.30;99.90;;;;;;5064194;28;20029;-49
2021/10/28 04:47:30;;;;;;;40.72;27.75;;;6.30;99.90;;;;;;5055385;28;20044;-48
2021/10/28 04:49:56;;;;;;;47.80;32.15;;;6.30;99.90;;;;;;5069446;28;20062;-48
2021/10/28 04:52:22;;;;;;;40.67;30.60;;;6.30;99.90;;;;;;5072567;28;20101;-49
2021/10/28 04:54:48;;;;;;;43.28;32.55;;;6.30;99.90;;;;;;5056686;28;20048;-49
2021/10/28 04:57:14;;;;;;;56.40;31.27;;;6.30;99.90;;;;;;5041730;28;20087;-49
2021/10/28 04:59:40;;;;;;;45.60;30.10;;;6.30;99.90;;;;;;5067252;28;20040;-48
2021/10/28 05:02:06;;;;;;;42.50;30.13;;;6.30;99.90;;;;;;5053648;28;20075;-48
2021/10/28 05:04:32;;;;;;;38.10;28.92;;;6.40;99.90;;;;;;5069823;28;20064;-48
2021/10/28 05:06:58;;;;;;;55.80;32.33;;;6.40;99.90;;;;;;5011376;28;20143;-48
2021/10/28 05:09:28;;;;;;;43.20;31.25;;;6.40;99.90;;;;;;5068053;28;20373;-49
2021/10/28 05:11:54;;;;;;;43.47;28.15;;;6.30;99.90;;;;;;5054416;28;20594;-47
2021/10/28 05:14:21;;;;;;;44.20;34.28;;;6.30;99.90;;;;;;5063844;28;20060;-51
2021/10/28 05:16:47;;;;;;;37.53;27.70;;;6.40;99.90;;;;;;5035576;28;20424;-50
2021/10/28 05:19:12;;;;;;;41.42;27.48;;;6.30;99.90;;;;;;5052627;28;20033;-49
2021/10/28 05:21:38;;;;;;;38.45;25.77;;;6.20;99.90;;;;;;5010510;28;20037;-51
2021/10/28 05:24:04;;;;;;;42.72;27.58;;;6.20;99.90;;;;;;5004500;28;20038;-49
2021/10/28 05:26:30;;;;;;;95.32;50.35;;;6.10;99.90;;;;;;4996070;28;20053;-50
2021/10/28 05:28:55;;;;;;;53.83;36.28;;;6.00;99.90;;;;;;5026508;28;20038;-49
2021/10/28 05:31:22;;;;;;;129.85;78.43;;;6.00;99.90;;;;;;5023038;28;20542;-49
2021/10/28 05:33:48;;;;;;;58.13;37.67;;;5.90;99.90;;;;;;5025965;28;20151;-50
2021/10/28 05:36:14;;;;;;;33.88;27.63;;;6.00;99.90;;;;;;5046141;28;20045;-50
2021/10/28 05:38:40;;;;;;;45.55;30.52;;;6.10;99.90;;;;;;5027226;28;20040;-50
2021/10/28 05:41:06;;;;;;;29.75;25.20;;;6.20;99.90;;;;;;5027114;28;20026;-53
2021/10/28 05:43:32;;;;;;;33.20;24.30;;;6.30;99.90;;;;;;5038934;28;20065;-50
2021/10/28 05:45:58;;;;;;;32.70;23.70;;;6.40;99.90;;;;;;5034613;28;20048;-51
2021/10/28 05:48:24;;;;;;;33.08;24.83;;;6.60;99.90;;;;;;5034557;28;20520;-51
2021/10/28 05:50:50;;;;;;;32.10;24.25;;;6.80;99.90;;;;;;5037859;28;20053;-51
2021/10/28 05:53:17;;;;;;;31.95;25.75;;;6.80;99.90;;;;;;5020461;28;20405;-51
2021/10/28 05:55:43;;;;;;;99.47;31.15;;;6.80;99.90;;;;;;5018500;28;20067;-50
2021/10/28 05:58:09;;;;;;;150.93;31.13;;;6.80;99.90;;;;;;5036232;28;20042;-50
2021/10/28 06:00:35;;;;;;;134.45;31.63;;;6.80;99.90;;;;;;5028301;28;20033;-52
2021/10/28 06:03:00;;;;;;;96.43;32.42;;;6.80;99.90;;;;;;5021447;28;20048;-54
2021/10/28 06:05:27;;;;;;;155.48;32.78;;;6.70;99.90;;;;;;5026798;28;20371;-55
2021/10/28 06:07:52;;;;;;;91.63;26.65;;;6.90;99.90;;;;;;5038591;28;20045;-51
2021/10/28 06:10:19;;;;;;;118.53;36.33;;;7.10;99.90;;;;;;5022017;28;20030;-53
2021/10/28 06:12:48;;;;;;;89.47;26.17;;;7.10;99.90;;;;;;5019515;28;20022;-50
2021/10/28 06:15:15;;;;;;;83.22;28.33;;;7.30;99.90;;;;;;5034975;28;20076;-51
2021/10/28 06:20:14;;;;;;;54.20;26.15;;;7.90;99.90;;;;;;5064033;28;20075;-50
2021/10/28 06:22:40;;;;;;;110.57;58.65;;;8.40;99.90;;;;;;5061867;28;20017;-51
2021/10/28 06:25:07;;;;;;;64.20;31.45;;;9.00;99.90;;;;;;5065485;28;20091;-50
2021/10/28 06:27:32;;;;;;;39.95;27.23;;;9.50;99.90;;;;;;5012544;28;20151;-50
2021/10/28 06:29:58;;;;;;;45.42;24.25;;;10.00;99.90;;;;;;5029938;28;20523;-50
2021/10/28 06:32:24;;;;;;;57.67;24.77;;;10.50;99.90;;;;;;5045858;28;20113;-51
2021/10/28 06:34:51;;;;;;;51.25;23.23;;;10.80;99.90;;;;;;5069199;28;20107;-50
2021/10/28 06:37:17;;;;;;;37.85;21.98;;;11.10;99.60;;;;;;5051658;28;20033;-50
2021/10/28 06:39:43;;;;;;;35.75;22.55;;;11.30;99.30;;;;;;5048047;28;20041;-50
2021/10/28 06:42:14;;;;;;;39.80;23.73;;;11.50;98.80;;;;;;5068204;28;20103;-50
2021/10/28 06:44:40;;;;;;;36.30;24.67;;;11.70;98.70;;;;;;5060383;28;20115;-51
2021/10/28 06:47:07;;;;;;;30.42;22.23;;;11.90;98.20;;;;;;5037847;28;20037;-51
2021/10/28 06:49:37;;;;;;;36.33;22.27;;;11.70;98.10;;;;;;5066956;28;20040;-51
2021/10/28 06:52:06;;;;;;;35.92;22.33;;;11.30;98.40;;;;;;5060335;28;20044;-50
2021/10/28 06:54:34;;;;;;;38.28;22.17;;;12.50;99.10;;;;;;5029598;28;20053;-50
2021/10/28 07:02:42;;;;;;;33.30;23.02;;;15.30;94.90;;;;;;5006653;28;20597;-52
2021/10/28 07:05:09;;;;;;;26.42;22.15;;;15.80;94.20;;;;;;5008964;28;20041;-51
2021/10/28 07:07:35;;;;;;;30.65;24.88;;;16.80;93.60;;;;;;5006780;28;20220;-51
2021/10/28 07:10:07;;;;;;;28.85;22.85;;;17.60;92.30;;;;;;5007467;28;20038;-51
2021/10/28 07:15:03;;;;;;;29.98;22.63;;;19.00;90.00;;;;;;4975801;28;19913;-51
2021/10/28 07:32:36;;;;;;;34.45;30.48;;;22.30;77.80;;;;;;4940535;28;20073;-51
2021/10/28 07:59:58;;;;;;;32.50;28.15;;;25.40;67.40;;;;;;5065662;28;20089;-51
2021/10/28 08:13:36;;;;;;;34.70;30.95;;;25.50;66.20;;;;;;5060759;28;20036;-50
2021/10/28 08:29:34;;;;;;;39.80;32.50;;;25.20;71.10;;;;;;5024008;28;20176;-49
2021/10/28 08:32:00;;;;;;;40.70;34.38;;;;;;;;;;5008910;28;20038;-50
2021/10/28 08:34:32;;;;;;;40.47;33.65;;;25.30;95.30;;;;;;5018444;28;20093;-50
2021/10/28 08:37:38;;;;;;;40.92;34.88;;;;;;;;;;5027785;28;20029;-50
2021/10/28 08:39:53;;;;;;;40.85;36.70;;;;;;;;;;5022939;28;20045;-50
2021/10/28 08:42:22;;;;;;;42.33;38.00;;;25.80;66.30;;;;;;5030153;28;20125;-51
2021/10/28 08:44:52;;;;;;;42.30;37.85;;;25.70;67.60;;;;;;5030062;28;20116;-50
2021/10/28 09:26:16;;;;;;;95.93;81.47;;;24.80;68.60;;;;;;5062089;28;20044;-49
2021/10/28 09:28:47;;;;;;;100.38;86.60;;;24.60;68.70;;;;;;5055597;28;20036;-49
2021/10/28 09:31:18;;;;;;;109.07;91.30;;;25.00;68.40;;;;;;5058643;28;20036;-49
2021/10/28 09:47:33;;;;;;;109.43;93.75;;;24.70;68.10;;;;;;5001670;28;20026;-49
2021/10/28 09:50:25;;;;;;;115.20;96.07;;;25.30;67.70;;;;;;5025682;28;20129;-49
2021/10/28 09:53:15;;;;;;;105.32;87.47;;;25.60;68.20;;;;;;5020238;28;20075;-50
2021/10/28 09:58:33;;;;;;;115.05;95.28;;;25.20;67.60;;;;;;5016409;28;20080;-49
2021/10/28 10:01:01;;;;;;;69.60;61.42;;;25.30;67.50;;;;;;4978227;28;20038;-49
2021/10/28 10:03:36;;;;;;;53.08;47.45;;;24.90;66.70;;;;;;5009992;28;20082;-48
2021/10/28 10:06:04;;;;;;;53.70;45.50;;;25.70;67.50;;;;;;5010276;28;20029;-51
2021/10/28 10:08:34;;;;;;;74.15;62.63;;;25.70;67.30;;;;;;4973201;28;20056;-50
2021/10/28 10:11:01;;;;;;;54.53;48.80;;;25.60;66.00;;;;;;5066238;28;20048;-49
2021/10/28 10:13:29;;;;;;;56.88;50.42;;;26.30;66.00;;;;;;5035205;28;20036;-49
2021/10/28 10:16:00;;;;;;;45.08;40.38;;;26.60;66.70;;;;;;5069046;28;20044;-49
2021/10/28 10:18:28;;;;;;;52.85;46.80;;;26.20;65.70;;;;;;5062328;28;20044;-50
2021/10/28 10:20:59;;;;;;;51.63;46.58;;;26.10;65.90;;;;;;5068296;28;20103;-49
2021/10/28 11:05:12;;;;;;;40.03;35.67;;;25.60;66.70;;;;;;4949499;28;20054;-52
2021/10/28 12:01:39;;;;;;;24.02;18.58;;;23.00;66.20;;;;;;4956304;28;20403;-52
2021/10/28 12:14:12;;;;;;;21.33;19.05;;;22.70;69.70;;;;;;5029334;28;20048;-52
2021/10/28 12:48:04;;;;;;;21.13;16.65;;;20.90;71.20;;;;;;4938380;29;20098;-49
2021/10/28 12:56:28;;;;;;;18.83;15.73;;;21.10;72.00;;;;;;4941780;29;20459;-48
2021/10/28 13:05:18;;;;;;;28.30;21.52;;;20.40;72.10;;;;;;4935864;29;20460;-49
2021/10/28 13:53:49;;;;;;;27.02;22.02;;;;;;;;;;5029618;28;20092;-49
2021/10/28 14:23:17;;;;;;;40.63;31.88;;;18.10;80.30;;;;;;5025927;28;20128;-50
2021/10/28 15:28:39;;;;;;;73.93;52.78;;;16.10;88.00;;;;;;4961791;28;20117;-48
2021/10/28 15:36:45;;;;;;;67.38;47.55;;;16.10;88.00;;;;;;4960107;28;20047;-48
2021/10/28 15:39:22;;;;;;;60.92;45.03;;;16.00;88.30;;;;;;4952640;28;20396;-49
2021/10/28 15:47:43;;;;;;;100.65;57.97;;;15.80;88.30;;;;;;4946558;28;20069;-50
2021/10/28 16:22:25;;;;;;;113.47;80.63;;;15.10;90.90;;;;;;4971657;28;20080;-50
2021/10/28 16:24:51;;;;;;;114.22;78.03;;;15.10;90.90;;;;;;5014420;28;20470;-48
2021/10/28 16:27:17;;;;;;;110.97;75.88;;;15.10;91.20;;;;;;4998792;28;20041;-47
2021/10/28 16:29:43;;;;;;;112.28;73.70;;;15.00;91.30;;;;;;5029468;28;20072;-49
2021/10/28 16:32:08;;;;;;;121.15;77.30;;;14.90;91.30;;;;;;4997712;28;20037;-48
2021/10/28 16:34:34;;;;;;;106.82;71.50;;;14.90;91.30;;;;;;5034002;28;20025;-48
2021/10/28 16:37:00;;;;;;;103.43;68.88;;;14.80;91.70;;;;;;5014538;28;20085;-47
2021/10/28 16:39:26;;;;;;;94.13;65.95;;;14.80;91.50;;;;;;4990968;28;20057;-47
2021/10/28 16:41:55;;;;;;;96.95;67.88;;;14.80;91.60;;;;;;5020075;28;20361;-47
2021/10/28 16:44:22;;;;;;;100.10;65.07;;;14.70;91.50;;;;;;4962499;28;20049;-47
2021/10/28 16:46:49;;;;;;;95.95;66.35;;;14.70;91.60;;;;;;4971306;28;20386;-48
2021/10/28 16:49:16;;;;;;;90.28;63.60;;;14.60;92.00;;;;;;4969991;28;20129;-49
2021/10/28 16:51:44;;;;;;;92.75;65.63;;;14.60;91.80;;;;;;4972486;28;20612;-50
2021/10/28 16:54:10;;;;;;;97.85;67.30;;;14.60;91.90;;;;;;4969348;28;20039;-49
2021/10/28 16:56:36;;;;;;;104.93;71.72;;;14.60;92.00;;;;;;4962002;28;20105;-47
2021/10/28 16:59:02;;;;;;;115.65;77.57;;;14.50;92.10;;;;;;4927302;29;20079;-49
2021/10/28 17:01:29;;;;;;;112.00;77.45;;;14.50;92.00;;;;;;4953167;29;20490;-48
2021/10/28 17:03:55;;;;;;;125.45;85.70;;;14.50;92.30;;;;;;4954909;28;20141;-49
2021/10/28 17:06:21;;;;;;;138.27;94.82;;;14.40;92.40;;;;;;4961202;28;20585;-48
2021/10/28 17:08:48;;;;;;;136.98;91.50;;;14.30;92.40;;;;;;4955512;28;20035;-49
2021/10/28 17:11:15;;;;;;;140.80;94.78;;;;;;;;;;4959684;28;20078;-48
2021/10/28 17:13:42;;;;;;;160.65;98.95;;;;;;;;;;4938822;28;20051;-48
2021/10/28 17:16:08;;;;;;;164.10;102.00;;;;;;;;;;5022328;28;20042;-49
2021/10/28 17:18:34;;;;;;;168.52;104.10;;;14.30;99.90;;;;;;5016530;28;20069;-47
2021/10/28 17:21:04;;;;;;;175.80;103.75;;;14.10;93.10;;;;;;4999972;28;20050;-48
2021/10/28 17:23:38;;;;;;;161.10;101.53;;;13.90;93.40;;;;;;5018679;28;20033;-48
2021/10/28 17:26:04;;;;;;;145.38;96.55;;;13.80;93.40;;;;;;5019197;28;20067;-49
2021/10/28 17:28:32;;;;;;;143.38;96.43;;;13.80;93.40;;;;;;5013046;28;20030;-48
2021/10/28 17:30:58;;;;;;;127.45;87.10;;;13.70;93.80;;;;;;5013023;28;20029;-49
2021/10/28 17:33:24;;;;;;;113.57;80.30;;;13.60;93.80;;;;;;5013150;28;20037;-48
2021/10/28 17:35:52;;;;;;;115.95;76.90;;;13.60;94.00;;;;;;4977778;28;20665;-49
2021/10/28 17:38:17;;;;;;;117.95;79.35;;;13.60;94.20;;;;;;5013152;28;20056;-47
2021/10/28 17:40:44;;;;;;;114.88;79.35;;;13.40;94.50;;;;;;5012983;28;20475;-48
2021/10/28 17:43:11;;;;;;;131.57;87.88;;;13.30;94.70;;;;;;5013212;28;20025;-48
2021/10/28 17:45:40;;;;;;;126.55;82.85;;;13.30;94.70;;;;;;5012892;28;20639;-48
2021/10/28 17:48:07;;;;;;;117.10;82.90;;;13.30;94.80;;;;;;5013011;28;20029;-49
2021/10/28 17:50:34;;;;;;;154.05;102.70;;;13.20;94.80;;;;;;5012944;28;20048;-49
2021/10/28 17:53:00;;;;;;;117.57;84.72;;;13.20;95.10;;;;;;4962753;28;20042;-47
2021/10/28 17:55:26;;;;;;;115.45;82.05;;;13.10;95.10;;;;;;5015284;28;20064;-49
2021/10/28 17:57:52;;;;;;;114.28;85.72;;;13.00;95.30;;;;;;5032517;28;20080;-49
2021/10/28 18:00:20;;;;;;;123.00;82.60;;;12.90;95.60;;;;;;5032606;28;20033;-50
2021/10/28 18:02:45;;;;;;;189.43;119.45;;;12.90;95.60;;;;;;5032595;28;20029;-48
2021/10/28 18:05:12;;;;;;;162.68;106.35;;;12.80;95.80;;;;;;5032057;28;20043;-50
2021/10/28 18:07:38;;;;;;;151.30;100.97;;;12.70;96.20;;;;;;5032504;28;20064;-48
2021/10/28 18:10:06;;;;;;;144.65;96.80;;;12.60;96.30;;;;;;4996862;28;20095;-48
2021/10/28 18:12:35;;;;;;;143.63;93.75;;;12.60;96.30;;;;;;4999750;28;20138;-48
2021/10/28 18:15:01;;;;;;;132.73;92.40;;;;;;;;;;5012489;28;20026;-49
2021/10/28 18:17:27;;;;;;;135.40;91.85;;;12.50;98.70;;;;;;4962090;28;20072;-48
2021/10/28 18:19:53;;;;;;;134.63;91.20;;;12.40;96.80;;;;;;5012629;28;20057;-50
2021/10/28 18:22:19;;;;;;;134.82;89.10;;;12.30;97.00;;;;;;5012712;28;20485;-48
2021/10/28 18:24:45;;;;;;;156.00;105.82;;;12.20;97.20;;;;;;4967199;28;20052;-49
2021/10/28 18:27:11;;;;;;;173.18;120.07;;;12.20;97.20;;;;;;5032183;28;20029;-49
2021/10/28 18:29:38;;;;;;;183.13;125.50;;;12.20;97.30;;;;;;4996625;28;20529;-48
2021/10/28 18:32:08;;;;;;;208.55;145.98;;;12.20;97.20;;;;;;5032107;28;20124;-49
2021/10/28 18:34:39;;;;;;;209.70;142.32;;;12.20;97.50;;;;;;5014218;28;20045;-49
2021/10/28 18:37:06;;;;;;;209.20;146.52;;;12.20;97.40;;;;;;5028576;28;20053;-47
2021/10/28 18:39:35;;;;;;;192.73;129.73;;;12.20;97.40;;;;;;5032129;28;20029;-49
2021/10/28 18:42:01;;;;;;;193.88;129.68;;;12.20;97.60;;;;;;5032082;28;20030;-48
2021/10/28 18:44:27;;;;;;;199.38;124.68;;;12.10;97.80;;;;;;5013437;28;20038;-48
2021/10/28 18:46:54;;;;;;;261.58;169.52;;;12.00;97.80;;;;;;5026043;28;20130;-50
2021/10/28 18:49:21;;;;;;;275.13;167.35;;;11.90;98.40;;;;;;5026638;28;20076;-48
2021/10/28 18:51:48;;;;;;;277.92;161.95;;;11.60;98.80;;;;;;5025096;28;20029;-47
2021/10/28 18:54:17;;;;;;;274.00;164.38;;;11.50;98.90;;;;;;5015971;28;20113;-49
2021/10/28 18:56:45;;;;;;;229.88;140.77;;;11.30;99.90;;;;;;4965370;28;20116;-49
2021/10/28 18:59:12;;;;;;;229.68;141.65;;;11.20;99.90;;;;;;5015747;28;20033;-49
2021/10/28 19:01:38;;;;;;;262.63;172.30;;;11.10;99.90;;;;;;5017571;28;20045;-48
2021/10/28 19:04:04;;;;;;;259.67;172.07;;;11.10;99.90;;;;;;5000660;28;20056;-50
2021/10/28 19:06:30;;;;;;;246.25;165.93;;;10.90;99.90;;;;;;5027886;28;20045;-49
2021/10/28 19:08:56;;;;;;;243.18;155.82;;;10.80;99.90;;;;;;5015965;28;20049;-48
2021/10/28 19:11:24;;;;;;;277.00;166.18;;;10.90;99.90;;;;;;4964993;28;20474;-48
2021/10/28 19:13:50;;;;;;;293.67;161.23;;;11.00;99.90;;;;;;5015696;28;20030;-50
2021/10/28 19:16:16;;;;;;;262.35;150.82;;;11.00;99.90;;;;;;4997953;28;20049;-47
2021/10/28 19:18:43;;;;;;;250.73;146.10;;;11.00;99.90;;;;;;5015614;28;20084;-50
2021/10/28 19:21:11;;;;;;;227.50;132.75;;;11.00;99.90;;;;;;5028144;28;20064;-49
2021/10/28 19:23:38;;;;;;;212.00;128.38;;;10.90;99.90;;;;;;5030671;28;20037;-49
2021/10/28 19:26:05;;;;;;;208.20;130.32;;;10.80;99.90;;;;;;5035182;28;20055;-50
2021/10/28 19:28:32;;;;;;;216.30;137.65;;;10.90;99.90;;;;;;5034718;28;20029;-49
2021/10/28 19:31:19;;;;;;;216.35;134.55;;;10.90;99.90;;;;;;5035174;28;20029;-50
2021/10/28 19:33:47;;;;;;;310.23;156.98;;;10.90;99.90;;;;;;5035301;28;20038;-47
2021/10/28 19:46:57;;;;;;;322.88;158.10;;;10.80;99.90;;;;;;5033968;28;20079;-49
2021/10/28 19:49:24;;;;;;;212.38;121.95;;;10.80;99.90;;;;;;5034864;28;20049;-49
2021/10/28 19:51:50;;;;;;;211.75;123.07;;;10.80;99.90;;;;;;5034897;28;20082;-49
2021/10/28 19:54:16;;;;;;;197.18;119.95;;;10.80;99.90;;;;;;5034639;28;20056;-47
2021/10/28 19:56:43;;;;;;;191.07;118.65;;;10.80;99.90;;;;;;5021957;28;20580;-48
2021/10/28 19:59:12;;;;;;;206.02;125.45;;;10.70;99.90;;;;;;5021148;28;20037;-46
2021/10/28 20:01:54;;;;;;;199.43;123.82;;;10.70;99.90;;;;;;4979562;28;20042;-48
2021/10/28 20:06:57;;;;;;;206.90;122.38;;;10.60;99.90;;;;;;5014779;28;20076;-47
2021/10/28 20:20:27;;;;;;;197.50;118.55;;;10.40;99.90;;;;;;5017057;28;20072;-49
2021/10/28 20:22:53;;;;;;;240.60;128.70;;;10.30;99.90;;;;;;5023772;28;20041;-48
2021/10/28 20:25:25;;;;;;;252.05;134.60;;;10.30;99.90;;;;;;4982226;28;20045;-52
2021/10/28 20:27:52;;;;;;;276.23;147.55;;;10.30;99.90;;;;;;5003985;28;20038;-52
2021/10/28 20:30:21;;;;;;;268.58;138.48;;;10.40;99.90;;;;;;5023861;28;20033;-51
2021/10/28 20:32:47;;;;;;;227.23;126.00;;;10.30;99.90;;;;;;5024302;28;20029;-51
2021/10/28 20:35:29;;;;;;;258.35;137.43;;;10.20;99.90;;;;;;5022341;28;20026;-51
2021/10/28 20:37:56;;;;;;;239.27;128.18;;;10.20;99.90;;;;;;5024486;28;20108;-48
2021/10/28 20:40:23;;;;;;;267.17;139.32;;;10.20;99.90;;;;;;5023635;28;20018;-51
2021/10/28 20:42:50;;;;;;;255.15;138.23;;;10.20;99.90;;;;;;5022337;28;20477;-49
2021/10/28 20:45:22;;;;;;;193.38;117.40;;;10.10;99.90;;;;;;5024060;28;20021;-49
2021/10/28 20:47:52;;;;;;;200.07;119.00;;;10.10;99.90;;;;;;5024138;28;20032;-51
2021/10/28 20:50:19;;;;;;;196.80;114.63;;;10.00;99.90;;;;;;5025686;28;20421;-49
2021/10/28 20:52:46;;;;;;;177.45;112.88;;;10.10;99.90;;;;;;4961840;28;20035;-51
2021/10/28 20:55:12;;;;;;;164.52;107.85;;;10.10;99.90;;;;;;4964305;28;20026;-49
2021/10/28 20:57:38;;;;;;;150.40;102.15;;;10.10;99.90;;;;;;4956797;28;20043;-49
2021/10/28 21:00:13;;;;;;;165.68;109.57;;;10.10;99.90;;;;;;4938517;29;20066;-49
2021/10/28 21:02:40;;;;;;;140.30;96.20;;;;;;;;;;4906717;29;20039;-49
2021/10/28 21:05:11;;;;;;;136.98;94.30;;;10.10;99.90;;;;;;4938150;29;20066;-51
2021/10/28 21:07:38;;;;;;;136.48;94.07;;;10.10;99.90;;;;;;4938710;29;20035;-48
2021/10/28 21:10:04;;;;;;;137.32;96.45;;;10.00;99.90;;;;;;4953793;28;20034;-50
2021/10/28 21:12:30;;;;;;;132.60;92.40;;;10.00;99.90;;;;;;4954584;29;20396;-51
2021/10/28 21:14:56;;;;;;;139.95;96.03;;;9.90;99.90;;;;;;4954402;29;20023;-48
2021/10/28 21:17:22;;;;;;;163.73;112.57;;;9.80;99.90;;;;;;4938349;29;20110;-50
2021/10/28 21:19:47;;;;;;;141.48;99.43;;;9.70;99.90;;;;;;4962172;28;20475;-49
2021/10/28 21:22:15;;;;;;;137.05;96.38;;;9.70;99.90;;;;;;4941525;28;20043;-50
2021/10/28 21:24:45;;;;;;;138.23;97.10;;;9.80;99.90;;;;;;5028263;28;20052;-49
2021/10/28 21:27:12;;;;;;;129.95;95.65;;;9.80;99.90;;;;;;5034628;28;20122;-48
2021/10/28 21:29:38;;;;;;;126.53;91.38;;;9.70;99.90;;;;;;5010376;28;20045;-48
2021/10/28 21:32:05;;;;;;;129.02;90.78;;;9.70;99.90;;;;;;5019983;28;20061;-50
2021/10/28 21:34:31;;;;;;;120.75;87.55;;;9.60;99.90;;;;;;4975900;28;20041;-49
2021/10/28 21:36:57;;;;;;;122.18;83.30;;;9.60;99.90;;;;;;5024094;28;20128;-50
2021/10/28 21:39:23;;;;;;;109.03;76.35;;;9.60;99.90;;;;;;4988062;28;20121;-50
2021/10/28 21:41:49;;;;;;;108.75;75.85;;;9.50;99.90;;;;;;5016559;28;20112;-49
2021/10/28 21:44:17;;;;;;;107.82;75.07;;;9.50;99.90;;;;;;5014022;28;20084;-51